sensor_id;sensor_type;location;lat;lon;timestamp;temperature;humidity
20728;DHT22;10525;50.154;8.198;2023-02-28T00:00:24;-0.80;99.90
20728;DHT22;10525;50.154;8.198;2023-02-28T00:02:51;-0.70;99.90
20728;DHT22;10525;50.154;8.198;2023-02-28T00:05:19;-0.70;99.90
20728;DHT22;10525;50.154;8.198;2023-02-28T00:07:47;-0.70;99.90
20728;DHT22;10525;50.154;8.198;2023-02-28T00:10:18;-0.60;99.90
20728;DHT22;10525;50.154;8.198;2023-02-28T00:12:46;-0.70;99.90
20728;DHT22;10525;50.154;8.198;2023-02-28T00:15:13;-0.60;99.90
20728;DHT22;10525;50.154;8.198;2023-02-28T00:17:39;-0.60;99.90
20728;DHT22;10525;50.154;8.198;2023-02-28T00:20:07;-0.70;99.90
20728;DHT22;10525;50.154;8.198;2023-02-28T00:22:36;-0.80;99.90
20728;DHT22;10525;50.154;8.198;2023-02-28T00:25:03;-0.80;99.90
20728;DHT22;10525;50.154;8.198;2023-02-28T00:27:34;-0.80;99.90
20728;DHT22;10525;50.154;8.198;2023-02-28T00:30:01;-0.90;99.90
20728;DHT22;10525;50.154;8.198;2023-02-28T00:32:27;-0.90;99.90
20728;DHT22;10525;50.154;8.198;2023-02-28T00:34:55;-1.00;99.90
20728;DHT22;10525;50.154;8.198;2023-02-28T00:37:21;-1.10;99.90
20728;DHT22;10525;50.154;8.198;2023-02-28T00:39:48;-1.10;99.90
20728;DHT22;10525;50.154;8.198;2023-02-28T00:42:15;-1.10;99.90
20728;DHT22;10525;50.154;8.198;2023-02-28T00:44:43;-1.10;99.90
20728;DHT22;10525;50.154;8.198;2023-02-28T00:47:09;-1.30;99.90
20728;DHT22;10525;50.154;8.198;2023-02-28T00:49:36;-1.40;99.90
20728;DHT22;10525;50.154;8.198;2023-02-28T00:52:03;-1.50;99.90
20728;DHT22;10525;50.154;8.198;2023-02-28T00:54:31;-1.60;99.90
20728;DHT22;10525;50.154;8.198;2023-02-28T00:56:58;-1.70;99.90
20728;DHT22;10525;50.154;8.198;2023-02-28T00:59:25;-1.70;99.90
20728;DHT22;10525;50.154;8.198;2023-02-28T01:01:53;-1.80;99.90
20728;DHT22;10525;50.154;8.198;2023-02-28T01:04:20;-1.80;99.90
20728;DHT22;10525;50.154;8.198;2023-02-28T01:06:46;-1.80;99.90
20728;DHT22;10525;50.154;8.198;2023-02-28T01:09:13;-1.80;99.90
20728;DHT22;10525;50.154;8.198;2023-02-28T01:11:41;-1.80;99.90
20728;DHT22;10525;50.154;8.198;2023-02-28T01:14:12;-1.90;99.90
20728;DHT22;10525;50.154;8.198;2023-02-28T01:16:39;-1.90;99.90
20728;DHT22;10525;50.154;8.198;2023-02-28T01:19:08;-1.90;99.90
20728;DHT22;10525;50.154;8.198;2023-02-28T01:21:35;-2.00;99.90
20728;DHT22;10525;50.154;8.198;2023-02-28T01:24:02;-2.00;99.90
20728;DHT22;10525;50.154;8.198;2023-02-28T01:26:29;-2.00;99.90
20728;DHT22;10525;50.154;8.198;2023-02-28T01:28:56;-1.90;99.90
20728;DHT22;10525;50.154;8.198;2023-02-28T01:31:23;-2.10;99.90
20728;DHT22;10525;50.154;8.198;2023-02-28T01:33:50;-2.00;99.90
20728;DHT22;10525;50.154;8.198;2023-02-28T01:36:20;-2.00;99.90
20728;DHT22;10525;50.154;8.198;2023-02-28T01:38:47;-2.10;99.90
20728;DHT22;10525;50.154;8.198;2023-02-28T01:41:16;-2.20;99.90
20728;DHT22;10525;50.154;8.198;2023-02-28T01:43:55;-2.20;99.90
20728;DHT22;10525;50.154;8.198;2023-02-28T01:46:22;-2.30;99.90
20728;DHT22;10525;50.154;8.198;2023-02-28T01:48:53;-2.40;99.90
20728;DHT22;10525;50.154;8.198;2023-02-28T01:51:25;-2.40;99.90
20728;DHT22;10525;50.154;8.198;2023-02-28T01:53:55;-2.40;99.90
20728;DHT22;10525;50.154;8.198;2023-02-28T01:56:25;-2.40;99.90
20728;DHT22;10525;50.154;8.198;2023-02-28T01:58:54;-2.60;99.90
20728;DHT22;10525;50.154;8.198;2023-02-28T02:01:22;-2.60;99.90
20728;DHT22;10525;50.154;8.198;2023-02-28T02:03:52;-2.70;99.90
20728;DHT22;10525;50.154;8.198;2023-02-28T02:06:22;-2.60;99.90
20728;DHT22;10525;50.154;8.198;2023-02-28T02:08:50;-2.60;99.90
20728;DHT22;10525;50.154;8.198;2023-02-28T02:11:19;-2.60;99.90
20728;DHT22;10525;50.154;8.198;2023-02-28T02:14:03;-2.60;99.90
20728;DHT22;10525;50.154;8.198;2023-02-28T02:16:38;-2.70;99.90
20728;DHT22;10525;50.154;8.198;2023-02-28T02:22:22;-2.90;99.90
20728;DHT22;10525;50.154;8.198;2023-02-28T02:25:09;-2.80;99.90
20728;DHT22;10525;50.154;8.198;2023-02-28T02:27:54;-2.90;99.90
20728;DHT22;10525;50.154;8.198;2023-02-28T02:31:04;-2.90;99.90
20728;DHT22;10525;50.154;8.198;2023-02-28T02:36:39;-3.00;99.90
20728;DHT22;10525;50.154;8.198;2023-02-28T02:39:13;-3.10;99.90
20728;DHT22;10525;50.154;8.198;2023-02-28T02:41:47;-3.20;99.90
20728;DHT22;10525;50.154;8.198;2023-02-28T02:44:19;-3.20;99.90
20728;DHT22;10525;50.154;8.198;2023-02-28T02:46:48;-3.20;99.90
20728;DHT22;10525;50.154;8.198;2023-02-28T02:49:20;-3.20;99.90
20728;DHT22;10525;50.154;8.198;2023-02-28T02:51:49;-3.30;99.90
20728;DHT22;10525;50.154;8.198;2023-02-28T02:54:20;-3.40;99.90
20728;DHT22;10525;50.154;8.198;2023-02-28T02:56:49;-3.30;99.90
20728;DHT22;10525;50.154;8.198;2023-02-28T02:59:20;-3.30;99.90
20728;DHT22;10525;50.154;8.198;2023-02-28T03:01:49;-3.30;99.90
20728;DHT22;10525;50.154;8.198;2023-02-28T03:04:19;-3.10;99.90
20728;DHT22;10525;50.154;8.198;2023-02-28T03:06:46;-3.20;99.90
20728;DHT22;10525;50.154;8.198;2023-02-28T03:09:14;-3.20;99.90
20728;DHT22;10525;50.154;8.198;2023-02-28T03:11:41;-3.20;99.90
20728;DHT22;10525;50.154;8.198;2023-02-28T03:14:23;-3.00;99.90
20728;DHT22;10525;50.154;8.198;2023-02-28T03:17:03;-3.00;99.90
20728;DHT22;10525;50.154;8.198;2023-02-28T03:19:45;-2.90;99.90
20728;DHT22;10525;50.154;8.198;2023-02-28T03:22:23;-3.00;99.90
20728;DHT22;10525;50.154;8.198;2023-02-28T03:24:59;-3.00;99.90
20728;DHT22;10525;50.154;8.198;2023-02-28T03:27:30;-3.00;99.90
20728;DHT22;10525;50.154;8.198;2023-02-28T03:30:01;-3.00;99.90
20728;DHT22;10525;50.154;8.198;2023-02-28T03:32:33;-3.00;99.90
20728;DHT22;10525;50.154;8.198;2023-02-28T03:35:03;-3.00;99.90
20728;DHT22;10525;50.154;8.198;2023-02-28T03:37:33;-3.00;99.90
20728;DHT22;10525;50.154;8.198;2023-02-28T03:40:06;-3.00;99.90
20728;DHT22;10525;50.154;8.198;2023-02-28T03:42:35;-3.00;99.90
20728;DHT22;10525;50.154;8.198;2023-02-28T03:45:05;-3.10;99.90
20728;DHT22;10525;50.154;8.198;2023-02-28T03:47:39;-3.10;99.90
20728;DHT22;10525;50.154;8.198;2023-02-28T03:50:09;-3.00;99.90
20728;DHT22;10525;50.154;8.198;2023-02-28T03:52:41;-3.00;99.90
20728;DHT22;10525;50.154;8.198;2023-02-28T03:55:13;-3.10;99.90
20728;DHT22;10525;50.154;8.198;2023-02-28T03:57:44;-3.10;99.90
20728;DHT22;10525;50.154;8.198;2023-02-28T04:00:17;-3.00;99.90
20728;DHT22;10525;50.154;8.198;2023-02-28T04:02:44;-3.10;99.90
20728;DHT22;10525;50.154;8.198;2023-02-28T04:05:11;-3.10;99.90
20728;DHT22;10525;50.154;8.198;2023-02-28T04:07:38;-3.20;99.90
20728;DHT22;10525;50.154;8.198;2023-02-28T04:10:06;-3.10;99.90
20728;DHT22;10525;50.154;8.198;2023-02-28T04:12:34;-3.20;99.90
20728;DHT22;10525;50.154;8.198;2023-02-28T04:15:00;-3.10;99.90
20728;DHT22;10525;50.154;8.198;2023-02-28T04:17:27;-3.10;99.90
20728;DHT22;10525;50.154;8.198;2023-02-28T04:19:54;-3.20;99.90
20728;DHT22;10525;50.154;8.198;2023-02-28T04:22:23;-3.20;99.90
20728;DHT22;10525;50.154;8.198;2023-02-28T04:24:51;-3.20;99.90
20728;DHT22;10525;50.154;8.198;2023-02-28T04:27:20;-3.30;99.90
20728;DHT22;10525;50.154;8.198;2023-02-28T04:29:48;-3.30;99.90
20728;DHT22;10525;50.154;8.198;2023-02-28T04:32:14;-3.20;99.90
20728;DHT22;10525;50.154;8.198;2023-02-28T04:34:41;-3.20;99.90
20728;DHT22;10525;50.154;8.198;2023-02-28T04:37:08;-3.10;99.90
20728;DHT22;10525;50.154;8.198;2023-02-28T04:39:35;-3.10;99.90
20728;DHT22;10525;50.154;8.198;2023-02-28T04:42:02;-3.10;99.90
20728;DHT22;10525;50.154;8.198;2023-02-28T04:44:29;-3.20;99.90
20728;DHT22;10525;50.154;8.198;2023-02-28T04:46:57;-3.10;99.90
20728;DHT22;10525;50.154;8.198;2023-02-28T04:49:24;-3.10;99.90
20728;DHT22;10525;50.154;8.198;2023-02-28T04:51:50;-3.10;99.90
20728;DHT22;10525;50.154;8.198;2023-02-28T04:54:18;-3.10;99.90
20728;DHT22;10525;50.154;8.198;2023-02-28T04:56:45;-3.10;99.90
20728;DHT22;10525;50.154;8.198;2023-02-28T04:59:11;-3.20;99.90
20728;DHT22;10525;50.154;8.198;2023-02-28T05:01:38;-3.10;99.90
20728;DHT22;10525;50.154;8.198;2023-02-28T05:04:06;-3.20;99.90
20728;DHT22;10525;50.154;8.198;2023-02-28T05:06:33;-3.20;99.90
20728;DHT22;10525;50.154;8.198;2023-02-28T05:09:00;-3.20;99.90
20728;DHT22;10525;50.154;8.198;2023-02-28T05:11:29;-3.10;99.90
20728;DHT22;10525;50.154;8.198;2023-02-28T05:14:00;-3.20;99.90
20728;DHT22;10525;50.154;8.198;2023-02-28T05:16:27;-3.20;99.90
20728;DHT22;10525;50.154;8.198;2023-02-28T05:18:54;-3.20;99.90
20728;DHT22;10525;50.154;8.198;2023-02-28T05:21:27;-3.30;99.90
20728;DHT22;10525;50.154;8.198;2023-02-28T05:23:55;-3.40;99.90
20728;DHT22;10525;50.154;8.198;2023-02-28T05:26:23;-3.40;99.90
20728;DHT22;10525;50.154;8.198;2023-02-28T05:28:49;-3.30;99.90
20728;DHT22;10525;50.154;8.198;2023-02-28T05:31:16;-3.20;99.90
20728;DHT22;10525;50.154;8.198;2023-02-28T05:33:43;-3.30;99.90
20728;DHT22;10525;50.154;8.198;2023-02-28T05:36:10;-3.30;99.90
20728;DHT22;10525;50.154;8.198;2023-02-28T05:38:38;-3.20;99.90
20728;DHT22;10525;50.154;8.198;2023-02-28T05:41:06;-3.10;99.90
20728;DHT22;10525;50.154;8.198;2023-02-28T05:43:34;-3.10;99.90
20728;DHT22;10525;50.154;8.198;2023-02-28T05:46:03;-3.00;99.90
20728;DHT22;10525;50.154;8.198;2023-02-28T05:48:30;-2.90;99.90
20728;DHT22;10525;50.154;8.198;2023-02-28T05:50:57;-2.80;99.90
20728;DHT22;10525;50.154;8.198;2023-02-28T05:53:24;-2.80;99.90
20728;DHT22;10525;50.154;8.198;2023-02-28T05:55:53;-2.80;99.90
20728;DHT22;10525;50.154;8.198;2023-02-28T05:58:20;-2.70;99.90
20728;DHT22;10525;50.154;8.198;2023-02-28T06:00:47;-2.70;99.90
20728;DHT22;10525;50.154;8.198;2023-02-28T06:03:14;-2.60;99.90
20728;DHT22;10525;50.154;8.198;2023-02-28T06:05:41;-2.50;99.90
20728;DHT22;10525;50.154;8.198;2023-02-28T06:08:08;-2.50;99.90
20728;DHT22;10525;50.154;8.198;2023-02-28T06:10:35;-2.40;99.90
20728;DHT22;10525;50.154;8.198;2023-02-28T06:13:03;-2.50;99.90
20728;DHT22;10525;50.154;8.198;2023-02-28T06:15:31;-2.40;99.90
20728;DHT22;10525;50.154;8.198;2023-02-28T06:17:58;-2.40;99.90
20728;DHT22;10525;50.154;8.198;2023-02-28T06:20:26;-2.40;99.90
20728;DHT22;10525;50.154;8.198;2023-02-28T06:22:54;-2.30;99.90
20728;DHT22;10525;50.154;8.198;2023-02-28T06:25:21;-2.30;99.90
20728;DHT22;10525;50.154;8.198;2023-02-28T06:27:48;-2.30;99.90
20728;DHT22;10525;50.154;8.198;2023-02-28T06:30:16;-2.30;99.90
20728;DHT22;10525;50.154;8.198;2023-02-28T06:32:43;-2.30;99.90
20728;DHT22;10525;50.154;8.198;2023-02-28T06:35:10;-2.30;99.90
20728;DHT22;10525;50.154;8.198;2023-02-28T06:37:36;-2.20;99.90
20728;DHT22;10525;50.154;8.198;2023-02-28T06:40:04;-2.20;99.90
20728;DHT22;10525;50.154;8.198;2023-02-28T06:42:32;-2.30;99.90
20728;DHT22;10525;50.154;8.198;2023-02-28T06:44:58;-2.30;99.90
20728;DHT22;10525;50.154;8.198;2023-02-28T06:47:27;-2.40;99.90
20728;DHT22;10525;50.154;8.198;2023-02-28T06:49:53;-2.30;99.90
20728;DHT22;10525;50.154;8.198;2023-02-28T06:52:20;-2.40;99.90
20728;DHT22;10525;50.154;8.198;2023-02-28T06:54:47;-2.40;99.90
20728;DHT22;10525;50.154;8.198;2023-02-28T06:57:25;-2.40;99.90
20728;DHT22;10525;50.154;8.198;2023-02-28T06:59:51;-2.40;99.90
20728;DHT22;10525;50.154;8.198;2023-02-28T07:02:18;-2.40;99.90
20728;DHT22;10525;50.154;8.198;2023-02-28T07:04:46;-2.30;99.90
20728;DHT22;10525;50.154;8.198;2023-02-28T07:07:13;-2.30;99.90
20728;DHT22;10525;50.154;8.198;2023-02-28T07:09:39;-2.30;99.90
20728;DHT22;10525;50.154;8.198;2023-02-28T07:12:06;-2.30;99.90
20728;DHT22;10525;50.154;8.198;2023-02-28T07:14:33;-2.20;99.90
20728;DHT22;10525;50.154;8.198;2023-02-28T07:16:59;-2.20;99.90
20728;DHT22;10525;50.154;8.198;2023-02-28T07:19:26;-2.10;99.90
20728;DHT22;10525;50.154;8.198;2023-02-28T07:21:54;-2.10;99.90
20728;DHT22;10525;50.154;8.198;2023-02-28T07:24:21;-2.00;99.90
20728;DHT22;10525;50.154;8.198;2023-02-28T07:26:51;-2.00;99.90
20728;DHT22;10525;50.154;8.198;2023-02-28T07:29:17;-2.00;99.90
20728;DHT22;10525;50.154;8.198;2023-02-28T07:31:44;-1.90;99.90
20728;DHT22;10525;50.154;8.198;2023-02-28T07:34:12;-1.90;99.90
20728;DHT22;10525;50.154;8.198;2023-02-28T07:36:38;-1.90;99.90
20728;DHT22;10525;50.154;8.198;2023-02-28T07:39:06;-1.80;99.90
20728;DHT22;10525;50.154;8.198;2023-02-28T07:41:34;-1.80;99.90
20728;DHT22;10525;50.154;8.198;2023-02-28T07:44:04;-1.60;99.90
20728;DHT22;10525;50.154;8.198;2023-02-28T07:46:31;-1.40;99.90
20728;DHT22;10525;50.154;8.198;2023-02-28T07:49:01;-1.20;99.90
20728;DHT22;10525;50.154;8.198;2023-02-28T07:51:28;-1.10;99.90
20728;DHT22;10525;50.154;8.198;2023-02-28T07:53:55;-1.00;99.90
20728;DHT22;10525;50.154;8.198;2023-02-28T07:56:23;-0.90;99.90
20728;DHT22;10525;50.154;8.198;2023-02-28T07:58:50;-1.00;99.90
20728;DHT22;10525;50.154;8.198;2023-02-28T08:01:17;-0.90;99.90
20728;DHT22;10525;50.154;8.198;2023-02-28T08:03:44;-1.00;99.90
20728;DHT22;10525;50.154;8.198;2023-02-28T08:06:17;-1.00;99.90
20728;DHT22;10525;50.154;8.198;2023-02-28T08:08:44;-0.90;99.90
20728;DHT22;10525;50.154;8.198;2023-02-28T08:11:10;-0.80;99.90
20728;DHT22;10525;50.154;8.198;2023-02-28T08:13:38;-0.80;99.90
20728;DHT22;10525;50.154;8.198;2023-02-28T08:16:05;-0.70;99.90
20728;DHT22;10525;50.154;8.198;2023-02-28T08:18:33;-0.70;99.90
20728;DHT22;10525;50.154;8.198;2023-02-28T08:21:05;-0.60;99.90
20728;DHT22;10525;50.154;8.198;2023-02-28T08:23:32;-0.60;99.90
20728;DHT22;10525;50.154;8.198;2023-02-28T08:26:00;-0.50;99.90
20728;DHT22;10525;50.154;8.198;2023-02-28T08:28:27;-0.40;99.90
20728;DHT22;10525;50.154;8.198;2023-02-28T08:30:55;-0.40;99.90
20728;DHT22;10525;50.154;8.198;2023-02-28T08:33:22;-0.30;99.90
20728;DHT22;10525;50.154;8.198;2023-02-28T08:35:52;-0.20;99.90
20728;DHT22;10525;50.154;8.198;2023-02-28T08:38:19;-0.10;99.90
20728;DHT22;10525;50.154;8.198;2023-02-28T08:40:45;0.00;99.90
20728;DHT22;10525;50.154;8.198;2023-02-28T08:43:12;0.10;99.90
20728;DHT22;10525;50.154;8.198;2023-02-28T08:45:39;0.20;99.90
20728;DHT22;10525;50.154;8.198;2023-02-28T08:48:07;0.20;99.90
20728;DHT22;10525;50.154;8.198;2023-02-28T08:50:33;0.30;99.90
20728;DHT22;10525;50.154;8.198;2023-02-28T08:53:00;0.50;99.90
20728;DHT22;10525;50.154;8.198;2023-02-28T08:55:27;0.50;99.90
20728;DHT22;10525;50.154;8.198;2023-02-28T08:57:53;0.70;99.90
20728;DHT22;10525;50.154;8.198;2023-02-28T09:00:21;0.70;99.90
20728;DHT22;10525;50.154;8.198;2023-02-28T09:02:48;0.80;99.90
20728;DHT22;10525;50.154;8.198;2023-02-28T09:05:16;0.70;99.90
20728;DHT22;10525;50.154;8.198;2023-02-28T09:07:43;0.80;99.90
20728;DHT22;10525;50.154;8.198;2023-02-28T09:10:10;0.70;99.90
20728;DHT22;10525;50.154;8.198;2023-02-28T09:12:37;0.70;99.90
20728;DHT22;10525;50.154;8.198;2023-02-28T09:15:04;0.80;99.90
20728;DHT22;10525;50.154;8.198;2023-02-28T09:17:31;0.90;99.90
20728;DHT22;10525;50.154;8.198;2023-02-28T09:19:58;1.00;99.90
20728;DHT22;10525;50.154;8.198;2023-02-28T09:22:26;1.10;99.90
20728;DHT22;10525;50.154;8.198;2023-02-28T09:24:53;1.10;99.90
20728;DHT22;10525;50.154;8.198;2023-02-28T09:27:19;1.20;99.90
20728;DHT22;10525;50.154;8.198;2023-02-28T09:29:46;1.10;99.90
20728;DHT22;10525;50.154;8.198;2023-02-28T09:32:13;1.10;99.90
20728;DHT22;10525;50.154;8.198;2023-02-28T09:34:39;1.20;99.90
20728;DHT22;10525;50.154;8.198;2023-02-28T09:37:06;1.20;99.90
20728;DHT22;10525;50.154;8.198;2023-02-28T09:39:34;1.30;99.90
20728;DHT22;10525;50.154;8.198;2023-02-28T09:42:02;1.40;99.90
20728;DHT22;10525;50.154;8.198;2023-02-28T09:44:33;1.30;99.90
20728;DHT22;10525;50.154;8.198;2023-02-28T09:47:05;1.30;99.90
20728;DHT22;10525;50.154;8.198;2023-02-28T09:49:38;1.30;99.90
20728;DHT22;10525;50.154;8.198;2023-02-28T09:52:09;1.40;99.90
20728;DHT22;10525;50.154;8.198;2023-02-28T09:54:38;1.60;99.90
20728;DHT22;10525;50.154;8.198;2023-02-28T09:57:08;1.60;99.90
20728;DHT22;10525;50.154;8.198;2023-02-28T09:59:45;1.50;99.90
20728;DHT22;10525;50.154;8.198;2023-02-28T10:02:27;1.30;99.90
20728;DHT22;10525;50.154;8.198;2023-02-28T10:04:59;1.40;99.90
20728;DHT22;10525;50.154;8.198;2023-02-28T10:07:39;1.60;99.90
20728;DHT22;10525;50.154;8.198;2023-02-28T10:10:20;1.90;99.90
20728;DHT22;10525;50.154;8.198;2023-02-28T10:12:49;1.90;99.90
20728;DHT22;10525;50.154;8.198;2023-02-28T10:15:21;1.80;99.90
20728;DHT22;10525;50.154;8.198;2023-02-28T10:17:54;1.90;99.90
20728;DHT22;10525;50.154;8.198;2023-02-28T10:20:22;2.30;99.90
20728;DHT22;10525;50.154;8.198;2023-02-28T10:22:58;2.60;99.90
20728;DHT22;10525;50.154;8.198;2023-02-28T10:25:28;2.70;99.90
20728;DHT22;10525;50.154;8.198;2023-02-28T10:28:01;2.60;99.90
20728;DHT22;10525;50.154;8.198;2023-02-28T10:30:28;2.60;99.90
20728;DHT22;10525;50.154;8.198;2023-02-28T10:32:54;2.60;99.90
20728;DHT22;10525;50.154;8.198;2023-02-28T10:35:23;2.30;99.90
20728;DHT22;10525;50.154;8.198;2023-02-28T10:37:52;2.40;99.90
20728;DHT22;10525;50.154;8.198;2023-02-28T10:40:31;2.60;99.90
20728;DHT22;10525;50.154;8.198;2023-02-28T10:42:59;2.90;99.90
20728;DHT22;10525;50.154;8.198;2023-02-28T10:45:28;3.00;99.90
20728;DHT22;10525;50.154;8.198;2023-02-28T10:47:57;3.00;99.90
20728;DHT22;10525;50.154;8.198;2023-02-28T10:50:36;3.30;99.90
20728;DHT22;10525;50.154;8.198;2023-02-28T10:53:24;3.50;99.90
20728;DHT22;10525;50.154;8.198;2023-02-28T10:56:00;3.60;99.90
20728;DHT22;10525;50.154;8.198;2023-02-28T10:58:31;3.90;99.90
20728;DHT22;10525;50.154;8.198;2023-02-28T11:00:59;3.70;99.90
20728;DHT22;10525;50.154;8.198;2023-02-28T11:03:31;3.40;99.90
20728;DHT22;10525;50.154;8.198;2023-02-28T11:05:59;3.40;99.90
20728;DHT22;10525;50.154;8.198;2023-02-28T11:08:30;3.40;99.90
20728;DHT22;10525;50.154;8.198;2023-02-28T11:11:05;3.70;99.90
20728;DHT22;10525;50.154;8.198;2023-02-28T11:13:34;3.70;99.90
20728;DHT22;10525;50.154;8.198;2023-02-28T11:16:04;3.50;99.90
20728;DHT22;10525;50.154;8.198;2023-02-28T11:18:38;3.30;99.90
20728;DHT22;10525;50.154;8.198;2023-02-28T11:21:05;3.00;99.90
20728;DHT22;10525;50.154;8.198;2023-02-28T11:23:34;2.70;99.90
20728;DHT22;10525;50.154;8.198;2023-02-28T11:26:04;2.70;99.90
20728;DHT22;10525;50.154;8.198;2023-02-28T11:28:37;2.90;99.90
20728;DHT22;10525;50.154;8.198;2023-02-28T11:31:14;3.10;99.90
20728;DHT22;10525;50.154;8.198;2023-02-28T11:33:43;3.10;99.90
20728;DHT22;10525;50.154;8.198;2023-02-28T11:36:12;3.10;99.90
20728;DHT22;10525;50.154;8.198;2023-02-28T11:38:39;3.30;99.90
20728;DHT22;10525;50.154;8.198;2023-02-28T11:41:24;3.70;99.90
20728;DHT22;10525;50.154;8.198;2023-02-28T11:44:10;3.60;99.90
20728;DHT22;10525;50.154;8.198;2023-02-28T11:46:48;3.50;99.90
20728;DHT22;10525;50.154;8.198;2023-02-28T11:49:28;3.70;99.90
20728;DHT22;10525;50.154;8.198;2023-02-28T11:52:00;3.30;99.90
20728;DHT22;10525;50.154;8.198;2023-02-28T11:57:41;3.10;99.90
20728;DHT22;10525;50.154;8.198;2023-02-28T12:00:26;3.00;99.90
20728;DHT22;10525;50.154;8.198;2023-02-28T12:03:03;2.90;99.90
20728;DHT22;10525;50.154;8.198;2023-02-28T12:05:38;3.00;99.90
20728;DHT22;10525;50.154;8.198;2023-02-28T12:08:20;3.10;99.90
20728;DHT22;10525;50.154;8.198;2023-02-28T12:10:59;3.00;99.90
20728;DHT22;10525;50.154;8.198;2023-02-28T12:13:36;2.90;99.90
20728;DHT22;10525;50.154;8.198;2023-02-28T12:16:39;3.10;99.90
20728;DHT22;10525;50.154;8.198;2023-02-28T12:19:19;3.10;99.90
20728;DHT22;10525;50.154;8.198;2023-02-28T12:25:18;3.20;99.90
20728;DHT22;10525;50.154;8.198;2023-02-28T12:27:48;3.40;99.90
20728;DHT22;10525;50.154;8.198;2023-02-28T12:30:21;3.30;99.90
20728;DHT22;10525;50.154;8.198;2023-02-28T12:32:52;3.30;99.90
20728;DHT22;10525;50.154;8.198;2023-02-28T12:35:25;3.30;99.90
20728;DHT22;10525;50.154;8.198;2023-02-28T12:37:57;3.40;99.90
20728;DHT22;10525;50.154;8.198;2023-02-28T12:40:32;3.20;99.90
20728;DHT22;10525;50.154;8.198;2023-02-28T12:43:04;3.10;99.90
20728;DHT22;10525;50.154;8.198;2023-02-28T12:45:40;3.00;99.90
20728;DHT22;10525;50.154;8.198;2023-02-28T12:48:10;3.10;99.90
20728;DHT22;10525;50.154;8.198;2023-02-28T12:50:40;3.20;99.90
20728;DHT22;10525;50.154;8.198;2023-02-28T12:53:10;3.40;99.90
20728;DHT22;10525;50.154;8.198;2023-02-28T12:55:45;3.50;99.90
20728;DHT22;10525;50.154;8.198;2023-02-28T12:58:19;3.40;99.90
20728;DHT22;10525;50.154;8.198;2023-02-28T13:01:02;3.20;99.90
20728;DHT22;10525;50.154;8.198;2023-02-28T13:03:42;3.30;99.90
20728;DHT22;10525;50.154;8.198;2023-02-28T13:06:28;3.40;99.90
20728;DHT22;10525;50.154;8.198;2023-02-28T13:09:02;3.20;99.90
20728;DHT22;10525;50.154;8.198;2023-02-28T13:11:32;3.10;99.90
20728;DHT22;10525;50.154;8.198;2023-02-28T13:14:01;3.10;99.90
20728;DHT22;10525;50.154;8.198;2023-02-28T13:16:50;3.30;99.90
20728;DHT22;10525;50.154;8.198;2023-02-28T13:19:20;3.40;99.90
20728;DHT22;10525;50.154;8.198;2023-02-28T13:21:48;3.40;99.90
20728;DHT22;10525;50.154;8.198;2023-02-28T13:24:38;3.50;99.90
20728;DHT22;10525;50.154;8.198;2023-02-28T13:27:36;3.50;99.90
20728;DHT22;10525;50.154;8.198;2023-02-28T13:33:23;3.60;99.90
20728;DHT22;10525;50.154;8.198;2023-02-28T13:36:09;3.50;99.90
20728;DHT22;10525;50.154;8.198;2023-02-28T13:38:39;3.40;99.90
20728;DHT22;10525;50.154;8.198;2023-02-28T13:41:41;3.30;99.90
20728;DHT22;10525;50.154;8.198;2023-02-28T13:44:09;3.30;99.90
20728;DHT22;10525;50.154;8.198;2023-02-28T13:47:15;3.40;99.90
20728;DHT22;10525;50.154;8.198;2023-02-28T13:49:28;3.40;99.90
20728;DHT22;10525;50.154;8.198;2023-02-28T13:52:06;3.50;99.90
20728;DHT22;10525;50.154;8.198;2023-02-28T13:54:45;3.50;99.90
20728;DHT22;10525;50.154;8.198;2023-02-28T13:57:25;3.60;99.90
20728;DHT22;10525;50.154;8.198;2023-02-28T14:00:07;3.60;99.90
20728;DHT22;10525;50.154;8.198;2023-02-28T14:03:05;3.40;99.90
20728;DHT22;10525;50.154;8.198;2023-02-28T14:05:36;3.30;99.90
20728;DHT22;10525;50.154;8.198;2023-02-28T14:08:06;3.40;99.90
20728;DHT22;10525;50.154;8.198;2023-02-28T14:10:42;3.40;99.90
20728;DHT22;10525;50.154;8.198;2023-02-28T14:13:38;3.20;99.90
20728;DHT22;10525;50.154;8.198;2023-02-28T14:16:10;3.30;99.90
20728;DHT22;10525;50.154;8.198;2023-02-28T14:18:40;3.30;99.90
20728;DHT22;10525;50.154;8.198;2023-02-28T14:21:16;3.40;99.90
20728;DHT22;10525;50.154;8.198;2023-02-28T14:24:20;3.40;99.90
20728;DHT22;10525;50.154;8.198;2023-02-28T14:27:07;3.40;99.90
20728;DHT22;10525;50.154;8.198;2023-02-28T14:30:14;3.30;99.90
20728;DHT22;10525;50.154;8.198;2023-02-28T14:32:47;3.40;99.90
20728;DHT22;10525;50.154;8.198;2023-02-28T14:35:29;3.20;99.90
20728;DHT22;10525;50.154;8.198;2023-02-28T14:38:05;3.20;99.90
20728;DHT22;10525;50.154;8.198;2023-02-28T14:40:34;3.20;99.90
20728;DHT22;10525;50.154;8.198;2023-02-28T14:43:03;3.20;99.90
20728;DHT22;10525;50.154;8.198;2023-02-28T14:45:31;3.10;99.90
20728;DHT22;10525;50.154;8.198;2023-02-28T14:47:59;3.20;99.90
20728;DHT22;10525;50.154;8.198;2023-02-28T14:50:29;3.20;99.90
20728;DHT22;10525;50.154;8.198;2023-02-28T14:52:57;3.20;99.90
20728;DHT22;10525;50.154;8.198;2023-02-28T14:55:29;3.20;99.90
20728;DHT22;10525;50.154;8.198;2023-02-28T14:57:58;3.20;99.90
20728;DHT22;10525;50.154;8.198;2023-02-28T15:00:26;3.30;99.90
20728;DHT22;10525;50.154;8.198;2023-02-28T15:02:55;3.30;99.90
20728;DHT22;10525;50.154;8.198;2023-02-28T15:05:25;3.40;99.90
20728;DHT22;10525;50.154;8.198;2023-02-28T15:08:02;3.40;99.90
20728;DHT22;10525;50.154;8.198;2023-02-28T15:10:31;3.40;99.90
20728;DHT22;10525;50.154;8.198;2023-02-28T15:13:00;3.20;99.90
20728;DHT22;10525;50.154;8.198;2023-02-28T15:15:39;3.20;99.90
20728;DHT22;10525;50.154;8.198;2023-02-28T15:18:24;3.20;99.90
20728;DHT22;10525;50.154;8.198;2023-02-28T15:20:55;3.10;99.90
20728;DHT22;10525;50.154;8.198;2023-02-28T15:23:23;3.00;99.90
20728;DHT22;10525;50.154;8.198;2023-02-28T15:25:50;3.00;99.90
20728;DHT22;10525;50.154;8.198;2023-02-28T15:28:20;2.90;99.90
20728;DHT22;10525;50.154;8.198;2023-02-28T15:30:57;2.90;99.90
20728;DHT22;10525;50.154;8.198;2023-02-28T15:33:27;2.90;99.90
20728;DHT22;10525;50.154;8.198;2023-02-28T15:36:12;2.90;99.90
20728;DHT22;10525;50.154;8.198;2023-02-28T15:38:43;3.00;99.90
20728;DHT22;10525;50.154;8.198;2023-02-28T15:41:22;3.00;99.90
20728;DHT22;10525;50.154;8.198;2023-02-28T15:44:18;3.00;99.90
20728;DHT22;10525;50.154;8.198;2023-02-28T15:46:58;3.00;99.90
20728;DHT22;10525;50.154;8.198;2023-02-28T15:49:27;3.00;99.90
20728;DHT22;10525;50.154;8.198;2023-02-28T15:51:57;2.90;99.90
20728;DHT22;10525;50.154;8.198;2023-02-28T15:54:29;2.80;99.90
20728;DHT22;10525;50.154;8.198;2023-02-28T15:57:01;2.80;99.90
20728;DHT22;10525;50.154;8.198;2023-02-28T15:59:31;2.80;99.90
20728;DHT22;10525;50.154;8.198;2023-02-28T16:02:14;2.80;99.90
20728;DHT22;10525;50.154;8.198;2023-02-28T16:04:56;2.80;99.90
20728;DHT22;10525;50.154;8.198;2023-02-28T16:07:23;2.70;99.90
20728;DHT22;10525;50.154;8.198;2023-02-28T16:09:50;2.70;99.90
20728;DHT22;10525;50.154;8.198;2023-02-28T16:12:17;2.70;99.90
20728;DHT22;10525;50.154;8.198;2023-02-28T16:14:46;2.70;99.90
20728;DHT22;10525;50.154;8.198;2023-02-28T16:17:18;2.70;99.90